Aegean Orion — SVA2487 — position and weather

sailwx.info

Track history (hours):
 
Tides and Currents Weather Stations Pressure Air Temp Water Temp Dewpoint Dewpoint Depression Visibility Wind Speed Wind Dir Waves Ship Positions

Aegean Orion

Last reported at 2017-Mar-24 05:33 UTC. Time now 2017-Mar-24 06:14 UTC.
Position N 38°02' E 023°34'.

; draft 2.4 m.

Type: Ship. MMSI: 239550200.

Date/timePositionNaut miles runAvg speedWind from/ knotsBaromVisibWave heightAir tempDewpointWater temp
2017-Mar-24 05:33N 38°02' E 023°34'1 0.1
2017-Mar-23 16:21N 38°02' E 023°32'4 5.7
2017-Mar-23 15:33N 37°58' E 023°33'4 4.5
2017-Mar-23 14:33N 37°57' E 023°38'0 0.0
2017-Mar-23 13:33N 37°57' E 023°38'1 1.1
2017-Mar-23 12:34N 37°56' E 023°37'0 0.2
2017-Mar-23 11:33N 37°56' E 023°37'0 0.0
2017-Mar-23 10:33N 37°56' E 023°37'0 0.0
2017-Mar-23 09:33N 37°56' E 023°37'0 0.0
2017-Mar-23 08:33N 37°56' E 023°37'5 4.7
2017-Mar-23 07:32N 37°60' E 023°33'3 2.8
2017-Mar-23 06:34N 38°02' E 023°32'0 0.0
2017-Mar-22 10:08N 38°02' E 023°32'2 3.2
2017-Mar-22 09:33N 38°02' E 023°34'1 0.9
2017-Mar-22 08:33N 38°02' E 023°35'0 0.0
2017-Mar-22 07:33N 38°02' E 023°35'0 0.0
2017-Mar-22 06:33N 38°02' E 023°35'3 2.6
2017-Mar-22 05:33N 38°02' E 023°32'0 0.0
2017-Mar-21 11:08N 38°02' E 023°32'3 5.6
2017-Mar-21 10:33N 37°59' E 023°33'5 4.8
2017-Mar-21 09:33N 37°56' E 023°38'0 0.0
2017-Mar-21 08:33N 37°56' E 023°38'0 0.0
2017-Mar-21 07:30N 37°56' E 023°38'1 0.9
2017-Mar-21 06:33N 37°56' E 023°37'6 6.0
2017-Mar-21 05:33N 38°01' E 023°32'1 0.1
2017-Mar-20 10:33N 38°02' E 023°31'0 0.3
2017-Mar-20 09:33N 38°02' E 023°31'0 0.0
2017-Mar-20 08:34N 38°02' E 023°31'0 0.0
2017-Mar-20 07:34N 38°02' E 023°31'0 0.4
2017-Mar-20 06:34N 38°02' E 023°31'0 0.2
2017-Mar-20 05:33N 38°02' E 023°31'1 0.0
2017-Mar-19 06:33N 38°02' E 023°32'5 5.0
2017-Mar-19 05:33N 37°57' E 023°34'0 0.5
2017-Mar-19 04:33N 37°57' E 023°34'0 0.0
2017-Mar-19 03:33N 37°57' E 023°34'0 0.0
2017-Mar-19 02:33N 37°57' E 023°34'0 0.0
2017-Mar-19 01:34N 37°57' E 023°34'0 0.1
2017-Mar-19 00:34N 37°57' E 023°34'3 1.0
2017-Mar-18 21:20N 37°56' E 023°38'3 4.3
2017-Mar-18 20:33N 37°57' E 023°34'0 0.0
2017-Mar-18 19:33N 37°57' E 023°34'0 0.0
2017-Mar-18 18:33N 37°57' E 023°34'0 0.0
2017-Mar-18 17:33N 37°57' E 023°34'1 0.7
2017-Mar-18 16:33N 37°58' E 023°33'5 4.7
2017-Mar-18 15:32N 38°02' E 023°32'0 0.0
2017-Mar-17 14:22N 38°02' E 023°32'5 6.1
2017-Mar-17 13:33N 37°57' E 023°33'3 1.1
2017-Mar-17 10:33N 37°56' E 023°37'5 5.1
2017-Mar-17 09:34N 38°00' E 023°33'3 2.5
2017-Mar-17 08:32N 38°02' E 023°35'0 0.0
2017-Mar-17 07:33N 38°02' E 023°35'0 0.0
2017-Mar-17 06:33N 38°02' E 023°35'0 0.0
2017-Mar-17 05:33N 38°02' E 023°35'3 0.1
2017-Mar-16 10:20N 38°02' E 023°32'3 3.6
2017-Mar-16 09:32N 37°59' E 023°33'5 4.8
2017-Mar-16 08:33N 37°56' E 023°37'0 0.0
2017-Mar-16 06:32N 37°56' E 023°37'2 2.5
2017-Mar-16 05:34N 37°57' E 023°34'0 0.0
2017-Mar-16 04:34N 37°57' E 023°35'0 0.0
2017-Mar-16 03:33N 37°57' E 023°35'0 0.0
2017-Mar-16 02:33N 37°57' E 023°35'0 0.0
2017-Mar-16 01:33N 37°57' E 023°35'0 0.0
2017-Mar-16 00:33N 37°57' E 023°35'3 1.0
2017-Mar-15 21:29N 37°57' E 023°38'3 3.6
2017-Mar-15 20:33N 37°57' E 023°34'0 0.1
2017-Mar-15 19:33N 37°57' E 023°34'0 0.0
2017-Mar-15 18:33N 37°57' E 023°34'0 0.0
2017-Mar-15 17:33N 37°57' E 023°34'4 4.5
2017-Mar-15 16:33N 38°01' E 023°32'1 0.0
2017-Mar-14 11:33N 38°02' E 023°32'3 2.7
2017-Mar-14 10:33N 38°02' E 023°35'0 0.0
2017-Mar-14 09:33N 38°02' E 023°35'0 0.0
2017-Mar-14 08:33N 38°02' E 023°35'0 0.0
2017-Mar-14 07:33N 38°02' E 023°35'2 2.2
2017-Mar-14 06:33N 38°02' E 023°33'  
Track history (hours):
 
Tides and Currents Weather Stations Pressure Air Temp Water Temp Dewpoint Dewpoint Depression Visibility Wind Speed Wind Dir Waves Ship Positions

Aegean Orion

Last reported at 2017-Mar-24 05:33 UTC. Time now 2017-Mar-24 06:14 UTC.
Position N 38°02' E 023°34'.

; draft 2.4 m.

Type: Ship. MMSI: 239550200.

Date/timePositionNaut miles runAvg speedWind from/ knotsBaromVisibWave heightAir tempDewpointWater temp
2017-Mar-24 05:33N 38°02' E 023°34'1 0.1
2017-Mar-23 16:21N 38°02' E 023°32'4 5.7
2017-Mar-23 15:33N 37°58' E 023°33'4 4.5
2017-Mar-23 14:33N 37°57' E 023°38'0 0.0
2017-Mar-23 13:33N 37°57' E 023°38'1 1.1
2017-Mar-23 12:34N 37°56' E 023°37'0 0.2
2017-Mar-23 11:33N 37°56' E 023°37'0 0.0
2017-Mar-23 10:33N 37°56' E 023°37'0 0.0
2017-Mar-23 09:33N 37°56' E 023°37'0 0.0
2017-Mar-23 08:33N 37°56' E 023°37'5 4.7
2017-Mar-23 07:32N 37°60' E 023°33'3 2.8
2017-Mar-23 06:34N 38°02' E 023°32'0 0.0
2017-Mar-22 10:08N 38°02' E 023°32'2 3.2
2017-Mar-22 09:33N 38°02' E 023°34'1 0.9
2017-Mar-22 08:33N 38°02' E 023°35'0 0.0
2017-Mar-22 07:33N 38°02' E 023°35'0 0.0
2017-Mar-22 06:33N 38°02' E 023°35'3 2.6
2017-Mar-22 05:33N 38°02' E 023°32'0 0.0
2017-Mar-21 11:08N 38°02' E 023°32'3 5.6
2017-Mar-21 10:33N 37°59' E 023°33'5 4.8
2017-Mar-21 09:33N 37°56' E 023°38'0 0.0
2017-Mar-21 08:33N 37°56' E 023°38'0 0.0
2017-Mar-21 07:30N 37°56' E 023°38'1 0.9
2017-Mar-21 06:33N 37°56' E 023°37'6 6.0
2017-Mar-21 05:33N 38°01' E 023°32'1 0.1
2017-Mar-20 10:33N 38°02' E 023°31'0 0.3
2017-Mar-20 09:33N 38°02' E 023°31'0 0.0
2017-Mar-20 08:34N 38°02' E 023°31'0 0.0
2017-Mar-20 07:34N 38°02' E 023°31'0 0.4
2017-Mar-20 06:34N 38°02' E 023°31'0 0.2
2017-Mar-20 05:33N 38°02' E 023°31'1 0.0
2017-Mar-19 06:33N 38°02' E 023°32'5 5.0
2017-Mar-19 05:33N 37°57' E 023°34'0 0.5
2017-Mar-19 04:33N 37°57' E 023°34'0 0.0
2017-Mar-19 03:33N 37°57' E 023°34'0 0.0
2017-Mar-19 02:33N 37°57' E 023°34'0 0.0
2017-Mar-19 01:34N 37°57' E 023°34'0 0.1
2017-Mar-19 00:34N 37°57' E 023°34'3 1.0
2017-Mar-18 21:20N 37°56' E 023°38'3 4.3
2017-Mar-18 20:33N 37°57' E 023°34'0 0.0
2017-Mar-18 19:33N 37°57' E 023°34'0 0.0
2017-Mar-18 18:33N 37°57' E 023°34'0 0.0
2017-Mar-18 17:33N 37°57' E 023°34'1 0.7
2017-Mar-18 16:33N 37°58' E 023°33'5 4.7
2017-Mar-18 15:32N 38°02' E 023°32'0 0.0
2017-Mar-17 14:22N 38°02' E 023°32'5 6.1
2017-Mar-17 13:33N 37°57' E 023°33'3 1.1
2017-Mar-17 10:33N 37°56' E 023°37'5 5.1
2017-Mar-17 09:34N 38°00' E 023°33'3 2.5
2017-Mar-17 08:32N 38°02' E 023°35'0 0.0
2017-Mar-17 07:33N 38°02' E 023°35'0 0.0
2017-Mar-17 06:33N 38°02' E 023°35'0 0.0
2017-Mar-17 05:33N 38°02' E 023°35'3 0.1
2017-Mar-16 10:20N 38°02' E 023°32'3 3.6
2017-Mar-16 09:32N 37°59' E 023°33'5 4.8
2017-Mar-16 08:33N 37°56' E 023°37'0 0.0
2017-Mar-16 06:32N 37°56' E 023°37'2 2.5
2017-Mar-16 05:34N 37°57' E 023°34'0 0.0
2017-Mar-16 04:34N 37°57' E 023°35'0 0.0
2017-Mar-16 03:33N 37°57' E 023°35'0 0.0
2017-Mar-16 02:33N 37°57' E 023°35'0 0.0
2017-Mar-16 01:33N 37°57' E 023°35'0 0.0
2017-Mar-16 00:33N 37°57' E 023°35'3 1.0
2017-Mar-15 21:29N 37°57' E 023°38'3 3.6
2017-Mar-15 20:33N 37°57' E 023°34'0 0.1
2017-Mar-15 19:33N 37°57' E 023°34'0 0.0
2017-Mar-15 18:33N 37°57' E 023°34'0 0.0
2017-Mar-15 17:33N 37°57' E 023°34'4 4.5
2017-Mar-15 16:33N 38°01' E 023°32'1 0.0
2017-Mar-14 11:33N 38°02' E 023°32'3 2.7
2017-Mar-14 10:33N 38°02' E 023°35'0 0.0
2017-Mar-14 09:33N 38°02' E 023°35'0 0.0
2017-Mar-14 08:33N 38°02' E 023°35'0 0.0
2017-Mar-14 07:33N 38°02' E 023°35'2 2.2
2017-Mar-14 06:33N 38°02' E 023°33'  

Dump ship's entire track history